createdAt,value
2018-01-31T01:52:20.658Z,55.85
2018-01-31T01:52:23.070Z,59.90
2018-01-31T01:52:27.661Z,60.19
2018-01-31T01:52:59.290Z,60.45
2018-01-31T01:53:30.960Z,60.04
2018-01-31T01:54:02.586Z,60.45
2018-01-31T01:54:34.218Z,60.65
2018-01-31T01:55:05.846Z,60.28
2018-01-31T01:55:37.474Z,60.12
2018-01-31T01:56:09.109Z,60.20
2018-01-31T01:56:40.733Z,60.01
2018-01-31T01:57:12.353Z,60.29
2018-01-31T01:57:43.977Z,60.18
2018-01-31T01:58:15.605Z,60.25
2018-01-31T01:58:47.278Z,60.03
2018-01-31T01:59:18.906Z,60.33
2018-01-31T01:59:50.538Z,60.19
2018-01-31T02:00:22.161Z,60.21
2018-01-31T02:00:53.790Z,60.41
2018-01-31T02:01:25.422Z,60.32
2018-01-31T02:01:57.069Z,60.33
2018-01-31T02:02:28.690Z,60.22
2018-01-31T02:03:00.314Z,60.18
2018-01-31T02:03:31.945Z,60.30
2018-01-31T02:04:03.614Z,60.27
2018-01-31T02:04:35.246Z,60.23
2018-01-31T02:05:06.865Z,60.23
2018-01-31T02:05:38.485Z,60.15
2018-01-31T02:06:10.105Z,60.36
2018-01-31T02:06:41.729Z,60.26
2018-01-31T02:07:13.358Z,60.31
2018-01-31T02:07:44.982Z,60.27
2018-01-31T02:08:16.653Z,60.08
2018-01-31T02:08:48.282Z,60.08
2018-01-31T02:09:19.910Z,60.04
2018-01-31T02:09:51.532Z,60.38
2018-01-31T02:10:23.154Z,60.25
2018-01-31T02:10:54.782Z,60.46
2018-01-31T02:11:26.405Z,60.54
2018-01-31T02:11:58.030Z,60.77
2018-01-31T02:12:29.653Z,60.23
2018-01-31T02:13:01.277Z,60.38
2018-01-31T02:13:32.953Z,60.26
2018-01-31T02:14:04.577Z,60.16
2018-01-31T02:14:36.238Z,60.24
2018-01-31T02:15:07.865Z,60.25
2018-01-31T02:15:39.493Z,60.10
2018-01-31T02:16:11.122Z,60.38
2018-01-31T02:16:42.750Z,60.44
2018-01-31T02:17:14.377Z,60.29
2018-01-31T02:17:46.006Z,60.83
2018-01-31T02:18:17.629Z,60.56
2018-01-31T02:18:49.298Z,60.81
2018-01-31T02:19:20.961Z,60.58
2018-01-31T02:19:52.581Z,60.87
2018-01-31T02:20:24.202Z,60.66
2018-01-31T02:20:55.866Z,60.73
2018-01-31T02:21:27.489Z,60.65
2018-01-31T02:21:59.109Z,60.69
2018-01-31T02:22:30.729Z,60.60
2018-01-31T02:23:02.358Z,60.54
2018-01-31T02:23:33.982Z,60.60
2018-01-31T02:24:05.604Z,60.51
2018-01-31T02:24:37.273Z,60.64
2018-01-31T02:25:08.977Z,60.41
2018-01-31T02:25:40.607Z,60.62
2018-01-31T02:26:12.229Z,60.48
2018-01-31T02:26:43.853Z,60.41
2018-01-31T02:27:15.473Z,60.44
2018-01-31T02:27:47.161Z,60.62
2018-01-31T02:28:18.813Z,60.50
2018-01-31T02:28:50.442Z,60.49
2018-01-31T02:29:22.071Z,60.53
2018-01-31T02:29:53.694Z,60.42
2018-01-31T02:30:25.314Z,60.42
2018-01-31T02:30:56.942Z,60.36
2018-01-31T02:31:28.570Z,60.28
2018-01-31T02:32:00.198Z,60.13
2018-01-31T02:32:31.830Z,60.25
2018-01-31T02:33:03.498Z,60.25
2018-01-31T02:33:35.125Z,60.26
2018-01-31T02:34:06.753Z,60.23
2018-01-31T02:34:38.386Z,60.23
2018-01-31T02:35:10.010Z,60.12
2018-01-31T02:35:41.642Z,60.20
2018-01-31T02:36:13.270Z,60.22
2018-01-31T02:36:44.893Z,60.32
2018-01-31T02:37:16.518Z,60.17
2018-01-31T02:37:48.182Z,60.23
2018-01-31T02:38:19.849Z,60.28
2018-01-31T02:38:51.474Z,60.19
2018-01-31T02:39:23.097Z,60.25
2018-01-31T02:39:54.725Z,60.26
2018-01-31T02:40:26.345Z,60.18
2018-01-31T02:40:57.965Z,60.14
2018-01-31T02:41:29.598Z,60.24
2018-01-31T02:42:01.271Z,60.05
2018-01-31T02:42:32.891Z,60.04
2018-01-31T02:43:04.558Z,60.10
2018-01-31T02:43:36.185Z,60.18
2018-01-31T02:44:07.846Z,60.04
2018-01-31T02:44:39.473Z,60.04
2018-01-31T02:45:11.094Z,60.00
2018-01-31T02:45:42.722Z,60.00
2018-01-31T02:46:14.345Z,60.06
2018-01-31T02:46:45.974Z,60.03
2018-01-31T02:47:17.602Z,60.06
2018-01-31T02:47:49.230Z,60.05
2018-01-31T02:48:20.861Z,60.10
2018-01-31T02:48:52.490Z,60.17
2018-01-31T02:49:24.202Z,60.17
2018-01-31T02:49:55.821Z,60.09
2018-01-31T02:50:27.446Z,60.01
2018-01-31T02:50:59.069Z,60.05
2018-01-31T02:51:30.694Z,59.97
2018-01-31T02:52:02.313Z,60.26
2018-01-31T02:52:33.933Z,60.24
2018-01-31T02:53:05.563Z,60.50
2018-01-31T02:53:37.185Z,60.47
2018-01-31T02:54:08.815Z,60.49
2018-01-31T02:54:40.478Z,60.47
2018-01-31T02:55:12.101Z,60.50
2018-01-31T02:55:43.766Z,60.70
2018-01-31T02:56:15.393Z,60.64
2018-01-31T02:56:47.017Z,60.78
2018-01-31T02:57:18.646Z,60.72
2018-01-31T02:57:50.278Z,60.65
2018-01-31T02:58:21.910Z,60.66
2018-01-31T02:58:53.847Z,60.71
2018-01-31T02:59:25.469Z,60.71
2018-01-31T02:59:57.090Z,60.78
2018-01-31T03:00:28.718Z,61.10
2018-01-31T03:01:00.394Z,61.23
2018-01-31T03:01:32.017Z,61.02
2018-01-31T03:02:03.645Z,61.05
2018-01-31T03:02:35.274Z,61.47
2018-01-31T03:03:06.901Z,61.48
2018-01-31T03:03:53.410Z,61.06
2018-01-31T03:04:25.036Z,61.19
2018-01-31T03:04:56.660Z,61.19
2018-01-31T03:05:28.282Z,61.17
2018-01-31T03:05:59.941Z,61.22
2018-01-31T03:06:31.566Z,61.16
2018-01-31T03:07:03.190Z,61.06
2018-01-31T03:07:34.817Z,61.22
2018-01-31T03:08:06.437Z,61.28
2018-01-31T03:08:38.058Z,61.29
2018-01-31T03:09:09.685Z,61.27
2018-01-31T03:09:41.378Z,61.04
2018-01-31T03:10:13.010Z,61.05
2018-01-31T03:10:44.637Z,60.98
2018-01-31T03:11:16.261Z,61.08
2018-01-31T03:11:47.889Z,61.11
2018-01-31T03:12:19.515Z,60.92
2018-01-31T03:12:51.142Z,61.03
2018-01-31T03:13:22.768Z,60.94
2018-01-31T03:13:54.394Z,60.98
2018-01-31T03:14:26.018Z,60.96
2018-01-31T03:14:57.725Z,60.92
2018-01-31T03:15:29.345Z,60.96
2018-01-31T03:16:00.970Z,61.01
2018-01-31T03:16:32.589Z,60.96
2018-01-31T03:17:04.210Z,60.85
2018-01-31T03:17:35.838Z,60.88
2018-01-31T03:18:07.467Z,61.07
2018-01-31T03:18:39.089Z,61.18
2018-01-31T03:19:10.718Z,61.37
2018-01-31T03:19:42.341Z,61.44
2018-01-31T03:20:14.006Z,61.52
2018-01-31T03:20:45.633Z,61.35
2018-01-31T03:21:17.261Z,61.34
2018-01-31T03:21:48.881Z,61.31
2018-01-31T03:22:20.502Z,61.42
2018-01-31T03:22:52.136Z,61.56
2018-01-31T03:23:23.766Z,61.41
2018-01-31T03:23:55.389Z,61.37
2018-01-31T03:24:27.014Z,61.33
2018-01-31T03:24:58.682Z,61.37
2018-01-31T03:25:30.305Z,61.48
2018-01-31T03:26:01.934Z,61.67
2018-01-31T03:26:33.563Z,61.44
2018-01-31T03:27:05.233Z,61.41
2018-01-31T03:27:36.906Z,61.45
2018-01-31T03:28:08.535Z,61.58
2018-01-31T03:28:40.162Z,61.52
2018-01-31T03:29:11.785Z,61.40
2018-01-31T03:29:43.409Z,61.58
2018-01-31T03:30:15.035Z,61.58
2018-01-31T03:30:46.662Z,61.64
2018-01-31T03:31:18.325Z,61.66
2018-01-31T03:31:49.950Z,61.82
2018-01-31T03:32:21.570Z,61.90
2018-01-31T03:32:53.189Z,62.37
2018-01-31T03:33:24.809Z,61.97
2018-01-31T03:33:56.429Z,61.96
2018-01-31T03:34:28.090Z,62.15
2018-01-31T03:34:59.717Z,62.43
2018-01-31T03:35:31.346Z,62.27
2018-01-31T03:36:02.970Z,62.19
2018-01-31T03:36:34.598Z,62.14
2018-01-31T03:37:06.227Z,62.09
2018-01-31T03:37:37.845Z,62.04
2018-01-31T03:38:09.472Z,62.01
2018-01-31T03:38:41.096Z,62.23
2018-01-31T03:39:12.762Z,61.85
2018-01-31T03:39:44.397Z,61.80
2018-01-31T03:40:16.021Z,62.02
2018-01-31T03:40:47.654Z,62.31
2018-01-31T03:41:19.287Z,62.09
2018-01-31T03:41:50.910Z,61.97
2018-01-31T03:42:22.585Z,61.69
2018-01-31T03:42:54.210Z,61.95
2018-01-31T03:43:25.837Z,61.84
2018-01-31T03:43:57.460Z,61.68
2018-01-31T03:44:29.085Z,61.60
2018-01-31T03:45:00.710Z,61.39
2018-01-31T03:45:32.337Z,61.37
2018-01-31T03:46:03.961Z,61.18
2018-01-31T03:46:35.590Z,61.13
2018-01-31T03:47:07.221Z,61.00
2018-01-31T03:47:38.885Z,60.85
2018-01-31T03:48:10.562Z,60.79
2018-01-31T03:48:42.181Z,60.73
2018-01-31T03:49:13.805Z,60.63
2018-01-31T03:49:45.428Z,60.54
2018-01-31T03:50:17.049Z,60.46
2018-01-31T03:50:48.674Z,59.90
2018-01-31T03:51:20.302Z,59.97
2018-01-31T03:51:51.930Z,59.97
2018-01-31T03:52:23.557Z,59.92
2018-01-31T03:52:55.181Z,59.74
2018-01-31T03:53:26.810Z,59.77
2018-01-31T03:53:58.517Z,59.44
2018-01-31T03:54:30.142Z,59.35
2018-01-31T03:55:01.765Z,59.36
2018-01-31T03:55:33.394Z,59.23
2018-01-31T03:56:05.021Z,59.29
2018-01-31T03:56:36.654Z,59.42
2018-01-31T03:57:08.286Z,59.43
2018-01-31T03:57:39.905Z,59.66
2018-01-31T03:58:11.541Z,59.59
2018-01-31T03:58:43.165Z,59.81
2018-01-31T03:59:14.835Z,59.79
2018-01-31T03:59:46.462Z,59.71
2018-01-31T04:00:18.126Z,59.76
2018-01-31T04:00:49.754Z,59.87
2018-01-31T04:01:21.442Z,59.71
2018-01-31T04:01:53.072Z,59.62
2018-01-31T04:02:24.697Z,59.65
2018-01-31T04:02:56.326Z,59.48
2018-01-31T04:03:27.953Z,59.49
2018-01-31T04:03:59.578Z,59.50
2018-01-31T04:04:31.202Z,59.38
2018-01-31T04:05:02.833Z,59.36
2018-01-31T04:05:34.461Z,59.35
2018-01-31T04:06:06.190Z,59.37
2018-01-31T04:06:37.925Z,59.30
2018-01-31T04:07:09.545Z,59.23
2018-01-31T04:07:41.169Z,59.23
2018-01-31T04:08:12.794Z,59.19
2018-01-31T04:08:44.465Z,59.14
2018-01-31T04:09:16.094Z,59.12
2018-01-31T04:09:47.717Z,59.08
2018-01-31T04:10:19.350Z,59.08
2018-01-31T04:10:50.978Z,59.08
2018-01-31T04:11:22.601Z,59.10
2018-01-31T04:11:54.225Z,59.09
2018-01-31T04:12:25.851Z,59.05
2018-01-31T04:12:57.473Z,59.00
2018-01-31T04:13:29.098Z,59.01
2018-01-31T04:14:00.765Z,58.98
2018-01-31T04:14:32.439Z,58.93
2018-01-31T04:15:04.061Z,58.90
2018-01-31T04:15:35.685Z,58.83
2018-01-31T04:16:07.306Z,58.83
2018-01-31T04:16:38.930Z,58.84
2018-01-31T04:17:10.557Z,58.81
2018-01-31T04:17:42.178Z,58.78
2018-01-31T04:18:13.806Z,58.77
2018-01-31T04:18:45.446Z,58.76
2018-01-31T04:19:17.073Z,58.78
2018-01-31T04:19:48.897Z,58.72
2018-01-31T04:20:20.525Z,58.70
2018-01-31T04:20:52.150Z,58.67
2018-01-31T04:21:23.774Z,58.66
2018-01-31T04:21:55.406Z,58.65
2018-01-31T04:22:27.030Z,58.64
2018-01-31T04:22:58.649Z,58.63
2018-01-31T04:23:30.273Z,58.63
2018-01-31T04:24:01.902Z,58.65
2018-01-31T04:24:33.527Z,58.63
2018-01-31T04:25:05.198Z,58.63
2018-01-31T04:25:36.830Z,58.63
2018-01-31T04:26:08.457Z,58.58
2018-01-31T04:26:40.082Z,58.58
2018-01-31T04:27:11.714Z,58.55
2018-01-31T04:27:43.342Z,58.53
2018-01-31T04:28:14.967Z,58.52
2018-01-31T04:28:46.598Z,58.53
2018-01-31T04:29:18.230Z,58.51
2018-01-31T04:29:49.858Z,58.49
2018-01-31T04:30:21.486Z,58.49
2018-01-31T04:30:53.114Z,58.47
2018-01-31T04:31:24.733Z,58.45
2018-01-31T04:31:56.353Z,58.40
2018-01-31T04:32:27.973Z,58.38
2018-01-31T04:32:59.593Z,58.39
2018-01-31T04:33:31.253Z,58.38
2018-01-31T04:34:02.878Z,58.36
2018-01-31T04:34:34.501Z,58.33
2018-01-31T04:35:06.128Z,58.32
2018-01-31T04:35:37.758Z,58.33
2018-01-31T04:36:09.382Z,58.32
2018-01-31T04:36:41.005Z,58.30
2018-01-31T04:37:12.669Z,58.28
2018-01-31T04:37:44.321Z,58.25
2018-01-31T04:38:15.954Z,58.22
2018-01-31T04:38:47.578Z,58.19
2018-01-31T04:39:19.201Z,58.20
2018-01-31T04:39:50.830Z,58.18
2018-01-31T04:40:22.457Z,58.19
2018-01-31T04:40:54.121Z,58.21
2018-01-31T04:41:25.741Z,58.16
2018-01-31T04:41:57.370Z,58.13
2018-01-31T04:42:29.035Z,58.13
2018-01-31T04:43:00.662Z,58.08
2018-01-31T04:43:32.290Z,58.09
2018-01-31T04:44:03.918Z,58.06
2018-01-31T04:44:35.541Z,58.00
2018-01-31T04:45:07.170Z,58.01
2018-01-31T04:45:38.818Z,58.03
2018-01-31T04:46:10.494Z,58.05
2018-01-31T04:46:42.121Z,58.04
2018-01-31T04:47:13.753Z,58.00
2018-01-31T04:47:45.382Z,58.00
2018-01-31T04:48:17.010Z,58.01
2018-01-31T04:48:48.633Z,58.00
2018-01-31T04:49:20.252Z,57.96
2018-01-31T04:49:51.878Z,57.97
2018-01-31T04:50:23.498Z,57.96
2018-01-31T04:50:55.125Z,57.95
2018-01-31T04:51:26.798Z,57.94
2018-01-31T04:51:58.485Z,57.96
2018-01-31T04:52:30.082Z,57.98
2018-01-31T04:53:01.701Z,57.96
2018-01-31T04:53:33.321Z,57.90
2018-01-31T04:54:04.941Z,57.89
2018-01-31T04:54:36.565Z,57.85
2018-01-31T04:55:08.272Z,57.83
2018-01-31T04:55:39.941Z,57.80
2018-01-31T04:56:11.562Z,57.79
2018-01-31T04:56:43.185Z,57.78
2018-01-31T04:57:14.814Z,57.77
2018-01-31T04:57:46.462Z,57.75
2018-01-31T04:58:18.090Z,57.73
2018-01-31T04:58:49.713Z,57.72
2018-01-31T04:59:21.382Z,57.70
2018-01-31T04:59:53.006Z,57.70
2018-01-31T05:00:24.634Z,57.72
2018-01-31T05:00:56.261Z,57.74
2018-01-31T05:01:27.885Z,57.71
2018-01-31T05:01:59.510Z,57.65
2018-01-31T05:02:31.135Z,57.62
2018-01-31T05:03:02.766Z,57.61
2018-01-31T05:03:34.393Z,57.63
2018-01-31T05:04:06.070Z,57.63
2018-01-31T05:04:37.693Z,57.63
2018-01-31T05:05:09.326Z,57.64
2018-01-31T05:05:40.953Z,57.62
2018-01-31T05:06:12.593Z,57.61
2018-01-31T05:06:44.213Z,57.59
2018-01-31T05:07:15.837Z,57.58
2018-01-31T05:07:47.457Z,57.51
2018-01-31T05:08:19.086Z,57.51
2018-01-31T05:08:50.709Z,57.49
2018-01-31T05:09:22.377Z,57.51
2018-01-31T05:09:54.002Z,57.49
2018-01-31T05:10:25.633Z,57.46
2018-01-31T05:10:57.298Z,57.46
2018-01-31T05:11:28.927Z,57.42
2018-01-31T05:12:00.647Z,57.41
2018-01-31T05:12:32.277Z,57.39
2018-01-31T05:13:03.897Z,57.41
2018-01-31T05:13:35.522Z,57.38
2018-01-31T05:14:07.153Z,57.37
2018-01-31T05:14:38.782Z,57.36
2018-01-31T05:15:10.409Z,57.36
2018-01-31T05:15:42.038Z,57.37
2018-01-31T05:16:13.713Z,57.38
2018-01-31T05:16:45.358Z,57.36
2018-01-31T05:17:16.985Z,57.28
2018-01-31T05:17:48.610Z,57.29
2018-01-31T05:18:20.235Z,57.28
2018-01-31T05:18:51.857Z,57.24
2018-01-31T05:19:23.477Z,57.28
2018-01-31T05:19:55.097Z,57.23
2018-01-31T05:20:26.722Z,57.23
2018-01-31T05:20:58.341Z,57.23
2018-01-31T05:21:30.182Z,57.20
2018-01-31T05:22:01.808Z,57.16
2018-01-31T05:22:33.433Z,57.17
2018-01-31T05:23:05.070Z,57.16
2018-01-31T05:23:36.698Z,57.15
2018-01-31T05:24:08.326Z,57.14
2018-01-31T05:24:39.950Z,57.13
2018-01-31T05:25:11.573Z,57.14
2018-01-31T05:25:43.193Z,57.14
2018-01-31T05:26:14.818Z,57.12
2018-01-31T05:26:46.506Z,57.09
2018-01-31T05:27:18.134Z,57.09
2018-01-31T05:27:49.757Z,57.10
2018-01-31T05:28:21.388Z,57.07
2018-01-31T05:28:53.009Z,57.07
2018-01-31T05:29:24.633Z,57.08
2018-01-31T05:29:56.261Z,57.03
2018-01-31T05:30:27.890Z,57.04
2018-01-31T05:30:59.525Z,57.03
2018-01-31T05:31:31.145Z,57.01
2018-01-31T05:32:02.809Z,56.98
2018-01-31T05:32:34.438Z,56.95
2018-01-31T05:33:06.070Z,56.95
2018-01-31T05:33:37.700Z,56.94
2018-01-31T05:34:09.366Z,56.92
2018-01-31T05:34:40.989Z,56.90
2018-01-31T05:35:12.613Z,56.88
2018-01-31T05:35:44.273Z,56.88
2018-01-31T05:36:15.942Z,56.83
2018-01-31T05:36:47.561Z,56.84
2018-01-31T05:37:19.261Z,56.82
2018-01-31T05:37:50.890Z,56.83
2018-01-31T05:38:22.518Z,56.81
2018-01-31T05:38:54.151Z,56.82
2018-01-31T05:39:25.773Z,56.82
2018-01-31T05:39:57.401Z,56.80
2018-01-31T05:40:29.073Z,56.77
2018-01-31T05:41:00.710Z,56.73
2018-01-31T05:41:32.338Z,56.73
2018-01-31T05:42:03.966Z,56.73
2018-01-31T05:42:35.590Z,56.73
2018-01-31T05:43:07.218Z,56.74
2018-01-31T05:43:38.841Z,56.72
2018-01-31T05:44:10.473Z,56.73
2018-01-31T05:44:42.094Z,56.75
2018-01-31T05:45:13.722Z,56.73
2018-01-31T05:45:45.349Z,56.73
2018-01-31T05:46:16.978Z,56.69
2018-01-31T05:46:48.601Z,56.68
2018-01-31T05:47:20.286Z,56.69
2018-01-31T05:47:51.905Z,56.65
2018-01-31T05:48:23.534Z,56.64
2018-01-31T05:48:55.162Z,56.67
2018-01-31T05:49:26.789Z,56.63
2018-01-31T05:49:58.423Z,56.64
2018-01-31T05:50:30.052Z,56.64
2018-01-31T05:51:01.673Z,56.61
2018-01-31T05:51:33.302Z,56.59
2018-01-31T05:52:04.925Z,56.56
2018-01-31T05:52:36.594Z,56.57
2018-01-31T05:53:08.217Z,56.54
2018-01-31T05:53:39.837Z,56.50
2018-01-31T05:54:11.458Z,56.53
2018-01-31T05:54:43.079Z,56.49
2018-01-31T05:55:14.701Z,56.52
2018-01-31T05:55:46.321Z,56.49
2018-01-31T05:56:17.942Z,56.47
2018-01-31T05:56:49.561Z,56.49
2018-01-31T05:57:21.229Z,56.47
2018-01-31T05:57:52.922Z,56.50
2018-01-31T05:58:24.545Z,56.50
2018-01-31T05:58:56.170Z,56.49
2018-01-31T05:59:27.800Z,56.48
2018-01-31T05:59:59.431Z,56.47
2018-01-31T06:00:31.058Z,56.41
2018-01-31T06:01:02.703Z,56.36
2018-01-31T06:01:34.330Z,56.39
2018-01-31T06:02:05.957Z,56.33
2018-01-31T06:02:37.577Z,56.33
2018-01-31T06:03:09.254Z,56.31
2018-01-31T06:03:40.881Z,56.33
2018-01-31T06:04:12.505Z,56.31
2018-01-31T06:04:44.128Z,56.33
2018-01-31T06:05:15.753Z,56.32
2018-01-31T06:05:47.381Z,56.34
2018-01-31T06:06:19.010Z,56.33
2018-01-31T06:06:50.638Z,56.32
2018-01-31T06:07:22.261Z,56.27
2018-01-31T06:07:53.882Z,56.30
2018-01-31T06:08:25.591Z,56.29
2018-01-31T06:08:57.201Z,56.30
2018-01-31T06:09:28.829Z,56.32
2018-01-31T06:10:00.458Z,56.29
2018-01-31T06:10:32.086Z,56.30
2018-01-31T06:11:03.713Z,56.33
2018-01-31T06:11:35.342Z,56.30
2018-01-31T06:12:07.009Z,56.28
2018-01-31T06:12:38.638Z,56.22
2018-01-31T06:13:10.262Z,56.25
2018-01-31T06:13:41.930Z,56.26
2018-01-31T06:14:13.598Z,56.23
2018-01-31T06:14:45.218Z,56.21
2018-01-31T06:15:16.841Z,56.20
2018-01-31T06:15:48.468Z,56.21
2018-01-31T06:16:20.094Z,56.20
2018-01-31T06:16:51.721Z,56.22
2018-01-31T06:17:23.346Z,56.18
2018-01-31T06:17:54.970Z,56.19
2018-01-31T06:18:26.593Z,56.17
2018-01-31T06:18:58.258Z,56.14
2018-01-31T06:19:29.877Z,56.13
2018-01-31T06:20:01.542Z,56.11
2018-01-31T06:20:33.170Z,56.09
2018-01-31T06:21:04.798Z,56.04
2018-01-31T06:21:36.425Z,56.05
2018-01-31T06:22:08.046Z,56.10
2018-01-31T06:22:39.675Z,56.08
2018-01-31T06:23:11.306Z,56.03
2018-01-31T06:23:42.935Z,56.06
2018-01-31T06:24:14.557Z,56.06
2018-01-31T06:24:46.226Z,56.03
2018-01-31T06:25:17.854Z,56.06
2018-01-31T06:25:49.477Z,56.04
2018-01-31T06:26:21.140Z,56.04
2018-01-31T06:26:52.770Z,56.03
2018-01-31T06:27:24.393Z,56.02
2018-01-31T06:27:56.022Z,56.04
2018-01-31T06:28:27.649Z,56.03
2018-01-31T06:28:59.277Z,56.06
2018-01-31T06:29:30.902Z,56.04
2018-01-31T06:30:02.566Z,56.02
2018-01-31T06:30:34.189Z,56.02
2018-01-31T06:31:05.809Z,56.03
2018-01-31T06:31:37.438Z,56.03
2018-01-31T06:32:09.107Z,56.04
2018-01-31T06:32:40.733Z,55.98
2018-01-31T06:33:12.373Z,55.98
2018-01-31T06:33:43.998Z,55.99
2018-01-31T06:34:15.621Z,55.99
2018-01-31T06:34:47.246Z,55.99
2018-01-31T06:35:18.873Z,56.01
2018-01-31T06:35:50.497Z,56.00
2018-01-31T06:36:22.126Z,55.98
2018-01-31T06:36:53.797Z,55.99
2018-01-31T06:37:25.426Z,55.99
2018-01-31T06:37:57.054Z,55.98
2018-01-31T06:38:28.681Z,55.99
2018-01-31T06:39:00.311Z,55.99
2018-01-31T06:39:31.937Z,55.99
2018-01-31T06:40:03.561Z,55.99
2018-01-31T06:40:35.186Z,55.93
2018-01-31T06:41:06.816Z,55.91
2018-01-31T06:41:38.441Z,55.99
2018-01-31T06:42:10.117Z,55.96
2018-01-31T06:42:41.746Z,55.93
2018-01-31T06:43:13.369Z,55.94
2018-01-31T06:43:45.004Z,55.98
2018-01-31T06:44:16.634Z,55.96
2018-01-31T06:44:48.261Z,55.99
2018-01-31T06:45:19.881Z,55.98
2018-01-31T06:45:51.505Z,55.98
2018-01-31T06:46:23.126Z,55.98
2018-01-31T06:46:54.745Z,56.00
2018-01-31T06:47:26.422Z,56.01
2018-01-31T06:47:58.049Z,55.98
2018-01-31T06:48:29.673Z,55.99
2018-01-31T06:49:01.301Z,55.98
2018-01-31T06:49:32.922Z,55.95
2018-01-31T06:50:04.546Z,55.90
2018-01-31T06:50:36.178Z,55.93
2018-01-31T06:51:07.801Z,55.89
2018-01-31T06:51:39.435Z,55.85
2018-01-31T06:52:11.066Z,55.88
2018-01-31T06:52:42.734Z,55.88
2018-01-31T06:53:14.398Z,55.88
2018-01-31T06:53:46.027Z,55.90
2018-01-31T06:54:17.649Z,55.92
2018-01-31T06:54:49.277Z,55.88
2018-01-31T06:55:20.897Z,55.88
2018-01-31T06:55:52.518Z,55.93
2018-01-31T06:56:24.148Z,55.91
2018-01-31T06:56:55.773Z,55.91
2018-01-31T06:57:27.633Z,55.91
2018-01-31T06:57:59.262Z,55.88
2018-01-31T06:58:30.889Z,55.88
2018-01-31T06:59:02.518Z,55.89
2018-01-31T06:59:34.141Z,55.91
2018-01-31T07:00:05.768Z,55.87
2018-01-31T07:00:37.427Z,55.88
2018-01-31T07:01:09.049Z,55.85
2018-01-31T07:01:40.674Z,55.83
2018-01-31T07:02:12.298Z,55.83
2018-01-31T07:02:43.966Z,55.82
2018-01-31T07:03:15.590Z,55.82
2018-01-31T07:03:47.222Z,55.83
2018-01-31T07:04:18.850Z,55.86
2018-01-31T07:04:50.474Z,55.85
2018-01-31T07:05:22.102Z,55.86
2018-01-31T07:05:53.730Z,55.85
2018-01-31T07:06:25.353Z,55.83
2018-01-31T07:06:56.974Z,55.82
2018-01-31T07:07:28.602Z,55.79
2018-01-31T07:08:00.230Z,55.82
2018-01-31T07:08:31.850Z,55.82
2018-01-31T07:09:03.510Z,55.78
2018-01-31T07:09:35.134Z,55.78
2018-01-31T07:10:06.757Z,55.76
2018-01-31T07:10:38.413Z,55.78
2018-01-31T07:11:10.033Z,55.79
2018-01-31T07:11:41.653Z,55.79
2018-01-31T07:12:13.282Z,55.79
2018-01-31T07:12:44.910Z,55.78
2018-01-31T07:13:16.538Z,55.78
2018-01-31T07:13:48.165Z,55.77
2018-01-31T07:14:19.790Z,55.76
2018-01-31T07:14:51.419Z,55.76
2018-01-31T07:15:23.086Z,55.73
2018-01-31T07:15:54.714Z,55.76
2018-01-31T07:16:26.338Z,55.79
2018-01-31T07:16:57.961Z,55.77
2018-01-31T07:17:29.700Z,55.78
2018-01-31T07:18:01.325Z,55.75
2018-01-31T07:18:32.949Z,55.75
2018-01-31T07:19:04.582Z,55.75
2018-01-31T07:19:36.210Z,55.71
2018-01-31T07:20:07.840Z,55.70
2018-01-31T07:20:39.469Z,55.73
2018-01-31T07:21:11.098Z,55.74
2018-01-31T07:21:42.722Z,55.74
2018-01-31T07:22:14.391Z,55.75
2018-01-31T07:22:46.017Z,55.71
2018-01-31T07:23:17.637Z,55.70
2018-01-31T07:23:49.261Z,55.70
2018-01-31T07:24:20.934Z,55.68
2018-01-31T07:24:52.557Z,55.71
2018-01-31T07:25:24.189Z,55.70
2018-01-31T07:25:55.813Z,55.66
2018-01-31T07:26:27.442Z,55.67
2018-01-31T07:26:59.065Z,55.65
2018-01-31T07:27:30.716Z,55.66
2018-01-31T07:28:02.346Z,55.69
2018-01-31T07:28:33.965Z,55.67
2018-01-31T07:29:05.594Z,55.72
2018-01-31T07:29:37.217Z,55.67
2018-01-31T07:30:08.877Z,55.69
2018-01-31T07:30:40.501Z,55.68
2018-01-31T07:31:12.129Z,55.68
2018-01-31T07:31:43.783Z,55.67
2018-01-31T07:32:15.406Z,55.67
2018-01-31T07:32:47.029Z,55.70
2018-01-31T07:33:18.649Z,55.66
2018-01-31T07:33:50.271Z,55.63
2018-01-31T07:34:21.933Z,55.60
2018-01-31T07:34:53.559Z,55.62
2018-01-31T07:35:25.185Z,55.65
2018-01-31T07:35:56.811Z,55.61
2018-01-31T07:36:28.433Z,55.59
2018-01-31T07:37:00.058Z,55.61
2018-01-31T07:37:31.681Z,55.58
2018-01-31T07:38:03.309Z,55.59
2018-01-31T07:38:34.943Z,55.60
2018-01-31T07:39:06.566Z,55.59
2018-01-31T07:39:38.242Z,55.61
2018-01-31T07:40:09.866Z,55.59
2018-01-31T07:40:41.497Z,55.61
2018-01-31T07:41:13.121Z,55.57
2018-01-31T07:41:44.748Z,55.60
2018-01-31T07:42:16.378Z,55.61
2018-01-31T07:42:48.007Z,55.61
2018-01-31T07:43:19.633Z,55.67
2018-01-31T07:43:51.261Z,55.67
2018-01-31T07:44:22.894Z,55.70
2018-01-31T07:44:54.562Z,55.73
2018-01-31T07:45:26.229Z,55.75
2018-01-31T07:45:57.854Z,55.76
2018-01-31T07:46:29.505Z,55.79
2018-01-31T07:47:01.129Z,55.80
2018-01-31T07:47:32.786Z,55.82
2018-01-31T07:48:04.413Z,55.84
2018-01-31T07:48:36.040Z,55.86
2018-01-31T07:49:07.670Z,55.88
2018-01-31T07:49:39.298Z,55.89
2018-01-31T07:50:10.957Z,55.95
2018-01-31T07:50:42.585Z,55.96
2018-01-31T07:51:14.218Z,55.98
2018-01-31T07:51:45.854Z,55.95
2018-01-31T07:52:17.473Z,55.99
2018-01-31T07:52:49.098Z,56.01
2018-01-31T07:53:20.718Z,56.05
2018-01-31T07:53:52.345Z,56.06
2018-01-31T07:54:23.965Z,56.04
2018-01-31T07:54:55.633Z,56.08
2018-01-31T07:55:27.257Z,56.08
2018-01-31T07:55:58.882Z,56.07
2018-01-31T07:56:30.534Z,56.05
2018-01-31T07:57:02.202Z,56.05
2018-01-31T07:57:33.829Z,56.07
2018-01-31T07:58:05.453Z,56.05
2018-01-31T07:58:37.077Z,56.07
2018-01-31T07:59:08.709Z,56.05
2018-01-31T07:59:40.330Z,56.05
2018-01-31T08:00:11.953Z,56.04
2018-01-31T08:00:43.581Z,56.03
2018-01-31T08:01:15.246Z,56.02
2018-01-31T08:01:46.935Z,55.99
2018-01-31T08:02:18.589Z,55.97
2018-01-31T08:02:50.213Z,55.96
2018-01-31T08:03:21.838Z,55.94
2018-01-31T08:03:53.462Z,55.94
2018-01-31T08:04:25.090Z,55.91
2018-01-31T08:04:56.718Z,55.86
2018-01-31T08:05:28.341Z,55.86
2018-01-31T08:05:59.971Z,55.83
2018-01-31T08:06:31.625Z,55.84
2018-01-31T08:07:03.290Z,55.79
2018-01-31T08:07:34.922Z,55.79
2018-01-31T08:08:06.581Z,55.81
2018-01-31T08:08:38.209Z,55.77
2018-01-31T08:09:09.833Z,55.75
2018-01-31T08:09:41.457Z,55.73
2018-01-31T08:10:13.077Z,55.69
2018-01-31T08:10:44.705Z,55.67
2018-01-31T08:11:16.333Z,55.65
2018-01-31T08:11:47.957Z,55.65
2018-01-31T08:12:19.621Z,55.63
2018-01-31T08:12:51.250Z,55.61
2018-01-31T08:13:22.917Z,55.61
2018-01-31T08:13:54.538Z,55.60
2018-01-31T08:14:26.165Z,55.61
2018-01-31T08:14:57.790Z,55.58
2018-01-31T08:15:29.415Z,55.61
2018-01-31T08:16:01.074Z,55.58
2018-01-31T08:16:32.771Z,55.60
2018-01-31T08:17:04.398Z,55.58
2018-01-31T08:17:36.022Z,55.57
2018-01-31T08:18:07.650Z,55.57
2018-01-31T08:18:39.277Z,55.55
2018-01-31T08:19:10.897Z,55.54
2018-01-31T08:19:42.521Z,55.55
2018-01-31T08:20:14.145Z,55.52
2018-01-31T08:20:45.770Z,55.54
2018-01-31T08:21:17.389Z,55.53
2018-01-31T08:21:49.058Z,55.50
2018-01-31T08:22:20.721Z,55.49
2018-01-31T08:22:52.341Z,55.47
2018-01-31T08:23:23.961Z,55.50
2018-01-31T08:23:55.581Z,55.46
2018-01-31T08:24:27.206Z,55.47
2018-01-31T08:24:58.825Z,55.45
2018-01-31T08:25:30.450Z,55.49
2018-01-31T08:26:02.102Z,55.44
2018-01-31T08:26:33.725Z,55.43
2018-01-31T08:27:05.353Z,55.40
2018-01-31T08:27:36.977Z,55.40
2018-01-31T08:28:08.602Z,55.41
2018-01-31T08:28:40.229Z,55.39
2018-01-31T08:29:11.858Z,55.41
2018-01-31T08:29:43.481Z,55.41
2018-01-31T08:30:15.110Z,55.43
2018-01-31T08:30:46.739Z,55.43
2018-01-31T08:31:18.366Z,55.42
2018-01-31T08:31:50.034Z,55.43
2018-01-31T08:32:21.657Z,55.41
2018-01-31T08:32:53.321Z,55.40
2018-01-31T08:33:24.950Z,55.40
2018-01-31T08:33:56.577Z,55.38
2018-01-31T08:34:28.202Z,55.38
2018-01-31T08:34:59.821Z,55.38
2018-01-31T08:35:31.441Z,55.38
2018-01-31T08:36:03.107Z,55.38
2018-01-31T08:36:34.730Z,55.38
2018-01-31T08:37:06.397Z,55.35
2018-01-31T08:37:38.022Z,55.31
2018-01-31T08:38:09.665Z,55.33
2018-01-31T08:38:41.333Z,55.36